Time;durP1;ratioP1;P1;durP2;ratioP2;P2;SDS_P1;SDS_P2;PMS_P1;PMS_P2;Temp;Humidity;BMP_temperature;BMP_pressure;BME280_temperature;BME280_humidity;BME280_pressure;Samples;Min_cycle;Max_cycle;Signal;HPM_P1;HPM_P2
2021/08/16 00:01:54;;;;;;;4.63;2.93;;;16.40;96.20;;;;;;6154653;23;20424;-64
2021/08/16 00:04:19;;;;;;;2.30;2.03;;;16.40;96.30;;;;;;6154458;23;20169;-64
2021/08/16 00:06:45;;;;;;;4.00;2.70;;;16.40;96.10;;;;;;6154543;23;20375;-64
2021/08/16 00:09:10;;;;;;;3.20;2.20;;;16.30;96.50;;;;;;6154305;23;20191;-64
2021/08/16 00:11:39;;;;;;;2.90;2.50;;;16.30;96.60;;;;;;6154980;23;20145;-64
2021/08/16 00:14:05;;;;;;;2.50;2.30;;;16.30;96.60;;;;;;6154554;23;20581;-64
2021/08/16 00:16:31;;;;;;;3.77;2.17;;;16.20;96.10;;;;;;6154239;23;20369;-64
2021/08/16 00:18:57;;;;;;;4.03;2.67;;;16.20;96.30;;;;;;6154132;23;20391;-64
2021/08/16 00:21:23;;;;;;;3.07;2.37;;;16.20;96.70;;;;;;6154561;23;20365;-64
2021/08/16 00:23:48;;;;;;;7.30;2.80;;;16.20;96.10;;;;;;6154460;23;20168;-64
2021/08/16 00:26:14;;;;;;;3.37;3.00;;;16.20;96.20;;;;;;6154391;23;20179;-64
2021/08/16 00:28:40;;;;;;;2.80;2.00;;;16.10;96.20;;;;;;6154037;23;20162;-64
2021/08/16 00:31:06;;;;;;;4.00;1.90;;;16.00;96.00;;;;;;6154428;23;20380;-64
2021/08/16 00:33:33;;;;;;;2.20;2.00;;;16.00;96.60;;;;;;6154416;23;20778;-64
2021/08/16 00:35:59;;;;;;;3.43;2.03;;;15.90;96.60;;;;;;6154575;23;20460;-64
2021/08/16 00:38:25;;;;;;;4.30;2.33;;;15.90;96.40;;;;;;6153862;23;20516;-64
2021/08/16 00:40:50;;;;;;;3.57;2.10;;;15.90;96.70;;;;;;6154407;23;20388;-64
2021/08/16 00:43:16;;;;;;;2.40;2.10;;;15.90;96.90;;;;;;6154269;23;20592;-64
2021/08/16 00:45:43;;;;;;;5.80;2.63;;;15.80;97.00;;;;;;6154264;23;20179;-64
2021/08/16 00:48:09;;;;;;;2.20;1.87;;;15.70;97.40;;;;;;6153840;23;20150;-64
2021/08/16 00:50:35;;;;;;;4.37;1.80;;;15.60;97.40;;;;;;6154158;23;20847;-64
2021/08/16 00:53:00;;;;;;;8.23;2.60;;;15.70;97.20;;;;;;6154205;23;20452;-64
2021/08/16 00:55:26;;;;;;;2.30;2.07;;;15.50;97.50;;;;;;6154566;23;20377;-64
2021/08/16 00:57:54;;;;;;;7.77;2.60;;;15.50;97.20;;;;;;6154233;23;20202;-64
2021/08/16 01:00:20;;;;;;;5.00;2.47;;;15.40;97.20;;;;;;6153957;23;20211;-64
2021/08/16 01:02:46;;;;;;;3.13;2.30;;;15.30;97.50;;;;;;6154425;23;20770;-64
2021/08/16 01:05:14;;;;;;;3.73;2.10;;;15.20;97.90;;;;;;6154066;23;20419;-64
2021/08/16 01:07:46;;;;;;;2.83;1.90;;;15.10;97.80;;;;;;6154169;23;20836;-64
2021/08/16 01:10:12;;;;;;;5.60;2.37;;;15.10;98.20;;;;;;6153857;23;20407;-64
2021/08/16 01:12:38;;;;;;;2.93;2.63;;;15.00;98.10;;;;;;6154439;23;20456;-64
2021/08/16 01:15:06;;;;;;;3.03;2.30;;;15.00;97.80;;;;;;6155074;23;20456;-64
2021/08/16 01:17:32;;;;;;;3.60;2.33;;;15.00;97.90;;;;;;6153902;23;20373;-63
2021/08/16 01:19:58;;;;;;;4.13;2.83;;;14.90;98.00;;;;;;6153885;23;20473;-64
2021/08/16 01:22:24;;;;;;;2.80;2.10;;;14.80;98.30;;;;;;6154440;23;20149;-64
2021/08/16 01:24:51;;;;;;;4.60;2.23;;;14.80;98.40;;;;;;6154312;23;20173;-64
2021/08/16 01:27:16;;;;;;;4.30;2.40;;;14.70;98.60;;;;;;6154324;23;20171;-64
2021/08/16 01:29:42;;;;;;;2.10;1.90;;;14.60;98.60;;;;;;6155614;23;20412;-64
2021/08/16 01:32:09;;;;;;;3.00;2.20;;;14.60;98.80;;;;;;6156206;23;20269;-64
2021/08/16 01:34:34;;;;;;;7.70;2.60;;;14.50;98.80;;;;;;6156764;23;20584;-64
2021/08/16 01:37:01;;;;;;;3.47;1.77;;;14.50;99.00;;;;;;6156220;23;20408;-64
2021/08/16 01:39:27;;;;;;;1.80;1.70;;;14.50;99.10;;;;;;6155867;23;20525;-64
2021/08/16 01:41:53;;;;;;;2.00;1.90;;;14.40;99.10;;;;;;6156172;23;20372;-64
2021/08/16 01:44:22;;;;;;;5.70;2.20;;;14.40;98.80;;;;;;6156200;23;20377;-64
2021/08/16 01:46:48;;;;;;;3.70;2.10;;;14.40;99.10;;;;;;6156015;23;20157;-64
2021/08/16 01:49:14;;;;;;;3.30;2.50;;;14.40;99.20;;;;;;6156026;23;20380;-63
2021/08/16 01:51:40;;;;;;;2.23;2.03;;;14.30;99.40;;;;;;6156091;23;20138;-64
2021/08/16 01:54:12;;;;;;;2.40;1.70;;;14.20;99.50;;;;;;6156328;23;20369;-64
2021/08/16 01:56:38;;;;;;;1.90;1.80;;;14.20;99.60;;;;;;6156316;23;20134;-64
2021/08/16 01:59:04;;;;;;;2.80;2.40;;;14.30;99.60;;;;;;6155724;23;20413;-63
2021/08/16 02:01:30;;;;;;;3.70;2.10;;;14.10;99.90;;;;;;6155927;23;20489;-64
2021/08/16 02:03:55;;;;;;;1.93;1.53;;;14.10;99.80;;;;;;6156097;23;20361;-63
2021/08/16 02:06:21;;;;;;;8.63;2.53;;;14.10;99.80;;;;;;6156225;23;20169;-64
2021/08/16 02:08:47;;;;;;;10.80;5.70;;;14.00;99.90;;;;;;6155631;23;20165;-63
2021/08/16 02:11:13;;;;;;;4.73;2.50;;;14.00;99.90;;;;;;6155955;23;20376;-64
2021/08/16 02:13:39;;;;;;;2.93;2.10;;;13.90;99.90;;;;;;6155989;23;20229;-63
2021/08/16 02:16:05;;;;;;;2.00;1.90;;;13.90;99.90;;;;;;6156010;23;20396;-63
2021/08/16 02:18:31;;;;;;;2.33;2.10;;;13.90;99.90;;;;;;6155655;23;20632;-63
2021/08/16 02:20:57;;;;;;;3.23;2.20;;;13.90;99.90;;;;;;6155794;23;20376;-63
2021/08/16 02:23:23;;;;;;;4.07;3.67;;;14.00;99.90;;;;;;6155851;23;20153;-63
2021/08/16 02:25:49;;;;;;;2.20;2.03;;;13.90;99.90;;;;;;6155729;23;20612;-64
2021/08/16 02:28:16;;;;;;;5.80;2.70;;;14.00;99.90;;;;;;6155371;23;20373;-63
2021/08/16 02:30:44;;;;;;;2.30;2.03;;;14.00;99.90;;;;;;6155736;23;20850;-64
2021/08/16 02:33:11;;;;;;;4.97;2.30;;;13.90;99.90;;;;;;6155986;23;20427;-63
2021/08/16 02:35:37;;;;;;;2.00;1.73;;;14.00;99.90;;;;;;6155746;23;20468;-63
2021/08/16 02:38:03;;;;;;;3.43;2.07;;;14.10;99.90;;;;;;6155402;23;20404;-63
2021/08/16 02:40:28;;;;;;;1.63;1.53;;;14.10;99.90;;;;;;6155195;23;20417;-63
2021/08/16 02:42:54;;;;;;;2.20;2.00;;;14.00;99.90;;;;;;6156052;23;20497;-63
2021/08/16 02:45:20;;;;;;;3.13;2.40;;;14.00;99.90;;;;;;6155442;23;20514;-64
2021/08/16 02:47:45;;;;;;;3.50;2.03;;;14.00;99.90;;;;;;6155920;23;20270;-63
2021/08/16 02:50:12;;;;;;;3.10;2.00;;;14.00;99.90;;;;;;6155544;23;20185;-64
2021/08/16 02:52:37;;;;;;;2.17;1.97;;;14.00;99.90;;;;;;6155454;23;20176;-64
2021/08/16 02:55:04;;;;;;;4.20;2.03;;;14.10;99.90;;;;;;6156049;23;20369;-63
2021/08/16 02:57:30;;;;;;;2.60;2.33;;;14.00;99.90;;;;;;6155823;23;20177;-63
2021/08/16 02:59:56;;;;;;;4.57;2.67;;;14.10;99.90;;;;;;6154917;23;20944;-63
2021/08/16 03:02:22;;;;;;;2.23;1.83;;;14.10;99.90;;;;;;6155387;23;20404;-63
2021/08/16 03:04:47;;;;;;;2.53;2.27;;;14.10;99.90;;;;;;6155249;23;20513;-64
2021/08/16 03:07:13;;;;;;;4.83;2.23;;;14.10;99.90;;;;;;6155689;23;20373;-63
2021/08/16 03:09:39;;;;;;;2.50;1.60;;;14.10;99.90;;;;;;6154945;23;20571;-63
2021/08/16 03:12:05;;;;;;;5.23;2.50;;;14.20;99.90;;;;;;6155673;23;20173;-64
2021/08/16 03:14:30;;;;;;;3.53;2.17;;;14.10;99.90;;;;;;6155483;23;20204;-63
2021/08/16 03:16:56;;;;;;;2.33;1.70;;;14.10;99.90;;;;;;6155370;23;20373;-63
2021/08/16 03:19:22;;;;;;;2.10;2.00;;;14.10;99.90;;;;;;6155009;23;20173;-63
2021/08/16 03:21:47;;;;;;;3.10;2.57;;;14.00;99.90;;;;;;6155387;23;20149;-64
2021/08/16 03:24:13;;;;;;;2.70;1.63;;;14.00;99.90;;;;;;6155318;23;20154;-63
2021/08/16 03:26:38;;;;;;;4.03;2.40;;;14.10;99.90;;;;;;6155239;23;20148;-62
2021/08/16 03:29:04;;;;;;;5.53;2.47;;;14.10;99.90;;;;;;6154534;23;20166;-63
2021/08/16 03:31:29;;;;;;;2.90;2.00;;;14.10;99.90;;;;;;6155229;23;20596;-63
2021/08/16 03:33:55;;;;;;;4.63;2.30;;;14.20;99.90;;;;;;6154981;23;20254;-63
2021/08/16 03:36:20;;;;;;;2.60;2.13;;;14.10;99.90;;;;;;6155385;23;20153;-63
2021/08/16 03:38:46;;;;;;;2.63;2.20;;;14.10;99.90;;;;;;6154455;23;20243;-63
2021/08/16 03:41:13;;;;;;;2.97;2.10;;;14.20;99.90;;;;;;6155006;23;20149;-64
2021/08/16 03:43:38;;;;;;;6.97;3.63;;;14.20;99.90;;;;;;6154747;23;20475;-63
2021/08/16 03:46:04;;;;;;;5.40;2.30;;;14.20;99.90;;;;;;6154984;23;20420;-63
2021/08/16 03:48:30;;;;;;;3.20;2.93;;;14.20;99.90;;;;;;6154516;23;20168;-63
2021/08/16 03:50:55;;;;;;;5.83;2.63;;;14.20;99.90;;;;;;6154846;23;20149;-63
2021/08/16 03:53:21;;;;;;;2.40;2.20;;;14.30;99.90;;;;;;6154931;23;20145;-63
2021/08/16 03:55:47;;;;;;;4.77;2.77;;;14.30;99.90;;;;;;6154822;23;20529;-63
2021/08/16 03:58:12;;;;;;;3.90;2.40;;;14.30;99.90;;;;;;6154369;23;20167;-63
2021/08/16 04:00:39;;;;;;;5.43;2.80;;;14.30;99.90;;;;;;6154870;23;20146;-64
2021/08/16 04:03:04;;;;;;;4.73;4.33;;;14.30;99.90;;;;;;6154644;23;20204;-63
2021/08/16 04:05:30;;;;;;;7.00;3.20;;;14.20;99.90;;;;;;6155044;23;20504;-63
2021/08/16 04:07:55;;;;;;;3.20;2.33;;;14.20;99.90;;;;;;6154594;23;20149;-64
2021/08/16 04:10:23;;;;;;;3.33;2.73;;;14.20;99.90;;;;;;6154406;23;20172;-63
2021/08/16 04:12:49;;;;;;;4.03;2.90;;;14.20;99.90;;;;;;6154910;23;20235;-64
2021/08/16 04:15:17;;;;;;;5.47;3.17;;;14.20;99.90;;;;;;6154648;23;20373;-63
2021/08/16 04:17:43;;;;;;;2.40;2.30;;;14.20;99.90;;;;;;6155111;23;20369;-63
2021/08/16 04:20:10;;;;;;;4.33;2.73;;;14.20;99.90;;;;;;6154407;23;20396;-63
2021/08/16 04:22:36;;;;;;;2.73;2.53;;;14.30;99.90;;;;;;6154532;23;20380;-64
2021/08/16 04:25:04;;;;;;;3.40;3.03;;;14.30;99.90;;;;;;6154639;23;20420;-64
2021/08/16 04:27:30;;;;;;;4.20;3.80;;;14.30;99.90;;;;;;6154727;23;20141;-63
2021/08/16 04:29:55;;;;;;;4.13;3.33;;;14.30;99.90;;;;;;6154051;23;20439;-63
2021/08/16 04:32:21;;;;;;;4.17;2.90;;;14.30;99.90;;;;;;6154992;23;20221;-63
2021/08/16 04:34:46;;;;;;;7.13;3.23;;;14.20;99.90;;;;;;6154345;23;20149;-64
2021/08/16 04:37:12;;;;;;;2.60;2.40;;;14.30;99.90;;;;;;6154633;23;20654;-63
2021/08/16 04:39:38;;;;;;;3.10;2.70;;;14.20;99.90;;;;;;6153828;23;20188;-63
2021/08/16 04:42:03;;;;;;;5.40;3.33;;;14.20;99.90;;;;;;6154470;23;20153;-64
2021/08/16 04:44:29;;;;;;;4.00;3.27;;;14.30;99.90;;;;;;6154633;23;20281;-64
2021/08/16 04:46:54;;;;;;;4.57;3.00;;;14.30;99.90;;;;;;6154519;23;20180;-63
2021/08/16 04:49:20;;;;;;;7.87;4.97;;;14.30;99.90;;;;;;6153948;23;20161;-63
2021/08/16 04:51:45;;;;;;;8.57;3.53;;;14.20;99.90;;;;;;6154561;23;20588;-63
2021/08/16 04:54:11;;;;;;;6.90;3.17;;;14.20;99.90;;;;;;6154250;23;20272;-63
2021/08/16 04:56:38;;;;;;;6.83;3.10;;;14.20;99.90;;;;;;6154523;23;20145;-64
2021/08/16 04:59:04;;;;;;;4.60;3.13;;;14.20;99.90;;;;;;6154024;23;20232;-63
2021/08/16 05:01:30;;;;;;;4.53;3.57;;;14.10;99.90;;;;;;6154738;23;20844;-63
2021/08/16 05:03:56;;;;;;;5.00;3.30;;;14.10;99.90;;;;;;6154255;23;20145;-64
2021/08/16 05:06:29;;;;;;;6.50;2.93;;;14.20;99.90;;;;;;6154723;23;20420;-63
2021/08/16 05:08:55;;;;;;;4.77;2.80;;;14.10;99.90;;;;;;6154170;23;20428;-64
2021/08/16 05:11:22;;;;;;;2.60;2.40;;;14.10;99.90;;;;;;6154262;23;20365;-63
2021/08/16 05:13:48;;;;;;;3.97;2.60;;;14.10;99.90;;;;;;6154143;23;20365;-64
2021/08/16 05:16:16;;;;;;;3.03;2.70;;;14.20;99.90;;;;;;6154255;23;20380;-62
2021/08/16 05:18:41;;;;;;;3.27;2.17;;;14.20;99.90;;;;;;6153995;23;20244;-63
2021/08/16 05:21:07;;;;;;;3.53;2.70;;;14.30;99.90;;;;;;6154477;23;20871;-64
2021/08/16 05:23:32;;;;;;;2.67;2.53;;;14.20;99.90;;;;;;6154454;23;20370;-63
2021/08/16 05:25:58;;;;;;;4.10;3.90;;;14.20;99.90;;;;;;6154191;23;20169;-64
2021/08/16 05:28:24;;;;;;;6.33;3.60;;;14.20;99.90;;;;;;6153774;23;20151;-63
2021/08/16 05:30:49;;;;;;;9.57;3.63;;;14.20;99.90;;;;;;6154561;23;20145;-63
2021/08/16 05:33:15;;;;;;;3.87;3.30;;;14.30;99.90;;;;;;6154155;23;20392;-63
2021/08/16 05:35:41;;;;;;;2.80;2.60;;;14.30;99.90;;;;;;6154122;23;20164;-63
2021/08/16 05:38:06;;;;;;;7.27;3.23;;;14.30;99.90;;;;;;6153750;23;20150;-64
2021/08/16 05:40:32;;;;;;;3.93;3.30;;;14.30;99.90;;;;;;6154237;23;20196;-63
2021/08/16 05:42:57;;;;;;;6.03;3.20;;;14.30;99.90;;;;;;6154130;23;20516;-64
2021/08/16 05:45:23;;;;;;;6.77;3.57;;;14.30;99.90;;;;;;6154121;23;20173;-63
2021/08/16 05:47:48;;;;;;;3.13;2.40;;;14.30;99.90;;;;;;6154253;23;20588;-64
2021/08/16 05:50:14;;;;;;;6.93;2.90;;;14.40;99.90;;;;;;6153719;23;20170;-62
2021/08/16 05:52:40;;;;;;;7.83;2.77;;;14.40;99.90;;;;;;6154024;23;20141;-64
2021/08/16 05:55:06;;;;;;;2.50;2.40;;;14.40;99.90;;;;;;6154175;23;20222;-64
2021/08/16 05:57:32;;;;;;;3.17;2.50;;;14.40;99.90;;;;;;6153981;23;20177;-64
2021/08/16 05:59:57;;;;;;;1.93;1.83;;;14.40;99.90;;;;;;6153550;23;20464;-64
2021/08/16 06:02:23;;;;;;;3.50;2.80;;;14.30;99.90;;;;;;6154339;23;20153;-64
2021/08/16 06:04:49;;;;;;;3.40;2.20;;;14.40;99.90;;;;;;6154023;23;20184;-63
2021/08/16 06:07:14;;;;;;;4.70;2.10;;;14.40;99.90;;;;;;6154011;23;20531;-63
2021/08/16 06:09:40;;;;;;;2.50;2.20;;;14.50;99.90;;;;;;6153951;23;20554;-64
2021/08/16 06:12:06;;;;;;;1.93;1.83;;;14.50;99.90;;;;;;6153959;23;20146;-64
2021/08/16 06:14:32;;;;;;;4.20;1.90;;;14.50;99.90;;;;;;6153890;23;20491;-64
2021/08/16 06:16:57;;;;;;;4.63;2.00;;;14.50;99.90;;;;;;6155736;23;20373;-63
2021/08/16 06:19:23;;;;;;;2.73;2.00;;;14.50;99.90;;;;;;6155199;23;20173;-64
2021/08/16 06:21:48;;;;;;;2.10;2.00;;;14.60;99.90;;;;;;6155661;23;20492;-64
2021/08/16 06:24:14;;;;;;;3.27;2.43;;;14.60;99.90;;;;;;6155516;23;20535;-64
2021/08/16 06:26:40;;;;;;;3.33;3.03;;;14.70;99.90;;;;;;6155643;23;20627;-64
2021/08/16 06:29:06;;;;;;;6.23;4.47;;;14.70;99.90;;;;;;6155274;23;20169;-63
2021/08/16 06:31:32;;;;;;;3.53;3.13;;;14.70;99.90;;;;;;6155765;23;20192;-64
2021/08/16 06:33:57;;;;;;;8.17;3.37;;;14.70;99.90;;;;;;6155787;23;20874;-63
2021/08/16 06:36:23;;;;;;;7.17;3.23;;;14.80;99.90;;;;;;6155769;23;20373;-64
2021/08/16 06:38:49;;;;;;;4.40;3.27;;;14.80;99.90;;;;;;6155246;23;20185;-64
2021/08/16 06:41:16;;;;;;;4.60;3.27;;;14.90;99.90;;;;;;6155604;23;20159;-63
2021/08/16 06:43:43;;;;;;;7.20;2.80;;;14.80;99.90;;;;;;6155522;23;20396;-64
2021/08/16 06:46:09;;;;;;;8.33;3.93;;;14.90;99.90;;;;;;6155500;23;20424;-64
2021/08/16 06:48:34;;;;;;;8.63;3.63;;;14.90;99.90;;;;;;6155370;23;20393;-64
2021/08/16 06:51:00;;;;;;;6.00;3.50;;;14.90;99.90;;;;;;6155372;23;20497;-64
2021/08/16 06:53:26;;;;;;;5.53;3.33;;;14.90;99.90;;;;;;6155400;23;20484;-63
2021/08/16 06:55:53;;;;;;;6.27;3.20;;;14.90;99.90;;;;;;6155383;23;20151;-63
2021/08/16 06:58:19;;;;;;;6.50;3.17;;;14.90;99.90;;;;;;6155306;23;20230;-63
2021/08/16 07:00:46;;;;;;;5.80;3.40;;;15.00;99.90;;;;;;6155796;23;20489;-64
2021/08/16 07:03:12;;;;;;;3.37;3.07;;;15.00;99.90;;;;;;6155496;23;20373;-64
2021/08/16 07:05:45;;;;;;;7.83;4.10;;;15.10;99.90;;;;;;6155366;23;20420;-64
2021/08/16 07:08:14;;;;;;;4.20;3.07;;;15.00;99.90;;;;;;6154991;23;20369;-64
2021/08/16 07:10:40;;;;;;;3.43;3.13;;;15.00;99.90;;;;;;6155738;23;20396;-63
2021/08/16 07:13:06;;;;;;;6.13;3.33;;;15.00;99.90;;;;;;6156130;23;20373;-64
2021/08/16 07:15:32;;;;;;;3.50;3.20;;;15.00;99.90;;;;;;6156626;23;20532;-64
2021/08/16 07:17:57;;;;;;;4.60;3.53;;;15.10;99.90;;;;;;6154734;23;20622;-64
2021/08/16 07:20:23;;;;;;;6.67;3.70;;;15.10;99.90;;;;;;6154952;23;20869;-65
2021/08/16 07:22:49;;;;;;;4.93;4.23;;;15.10;99.90;;;;;;6154945;23;20208;-63
2021/08/16 07:25:14;;;;;;;3.60;3.30;;;15.10;99.90;;;;;;6154917;23;20244;-64
2021/08/16 07:27:40;;;;;;;6.87;3.30;;;15.20;99.90;;;;;;6154818;23;20485;-64
2021/08/16 07:30:06;;;;;;;2.83;2.63;;;15.20;99.90;;;;;;6154859;23;20172;-64
2021/08/16 07:32:32;;;;;;;5.27;4.27;;;15.20;99.90;;;;;;6154900;23;20204;-64
2021/08/16 07:34:57;;;;;;;4.07;2.70;;;15.20;99.90;;;;;;6154989;23;20381;-65
2021/08/16 07:37:23;;;;;;;5.30;3.40;;;15.20;99.90;;;;;;6154994;23;20160;-63
2021/08/16 07:39:49;;;;;;;4.90;3.00;;;15.30;99.90;;;;;;6154318;23;20181;-63
2021/08/16 07:42:14;;;;;;;4.83;3.40;;;15.30;99.90;;;;;;6154842;23;20176;-64
2021/08/16 07:44:40;;;;;;;8.80;4.60;;;15.40;99.90;;;;;;6154755;23;20219;-64
2021/08/16 07:47:05;;;;;;;10.83;3.90;;;15.50;99.90;;;;;;6154759;23;20281;-64
2021/08/16 07:49:31;;;;;;;4.63;2.87;;;15.50;99.90;;;;;;6154724;23;20506;-64
2021/08/16 07:52:01;;;;;;;3.13;2.83;;;15.50;99.90;;;;;;6154851;23;20659;-64
2021/08/16 07:54:27;;;;;;;5.07;4.30;;;15.60;99.90;;;;;;6154932;23;20149;-64
2021/08/16 07:56:53;;;;;;;4.10;2.90;;;15.70;99.90;;;;;;6154770;23;20358;-64
2021/08/16 07:59:18;;;;;;;7.80;3.00;;;15.70;99.90;;;;;;6154266;23;20393;-64
2021/08/16 08:01:45;;;;;;;3.37;2.70;;;15.70;99.90;;;;;;6154632;23;20600;-63
2021/08/16 08:04:11;;;;;;;3.60;3.03;;;15.80;99.90;;;;;;6154645;23;20156;-63
2021/08/16 08:06:36;;;;;;;4.27;2.97;;;15.90;99.90;;;;;;6154532;23;20417;-64
2021/08/16 08:09:02;;;;;;;3.23;2.80;;;15.90;99.90;;;;;;6154171;23;20467;-63
2021/08/16 08:11:28;;;;;;;3.57;3.23;;;16.00;99.90;;;;;;6154666;23;20525;-64
2021/08/16 08:13:54;;;;;;;5.67;2.90;;;16.10;99.90;;;;;;6154846;23;20146;-64
2021/08/16 08:16:19;;;;;;;6.93;3.80;;;16.10;99.90;;;;;;6154789;23;20160;-64
2021/08/16 08:18:45;;;;;;;7.40;3.03;;;16.20;99.90;;;;;;6154112;23;20223;-63
2021/08/16 08:21:10;;;;;;;6.67;3.50;;;16.30;99.90;;;;;;6154696;23;20630;-64
2021/08/16 08:23:36;;;;;;;3.43;3.13;;;16.40;99.90;;;;;;6154415;23;20486;-64
2021/08/16 08:26:02;;;;;;;5.60;2.70;;;16.50;99.90;;;;;;6154410;23;20176;-64
2021/08/16 08:28:28;;;;;;;4.20;2.53;;;16.70;99.90;;;;;;6154043;23;20424;-64
2021/08/16 08:30:53;;;;;;;2.87;2.57;;;17.00;99.90;;;;;;6154364;23;20160;-65
2021/08/16 08:33:19;;;;;;;3.57;3.07;;;17.20;99.90;;;;;;6154328;23;20623;-64
2021/08/16 08:35:46;;;;;;;3.10;2.87;;;17.50;99.90;;;;;;6154441;23;20159;-64
2021/08/16 08:38:12;;;;;;;7.60;3.10;;;17.70;99.90;;;;;;6153565;23;20154;-64
2021/08/16 08:40:39;;;;;;;5.30;4.80;;;17.90;99.90;;;;;;6154428;23;20361;-65
2021/08/16 08:43:08;;;;;;;3.73;3.40;;;17.90;99.90;;;;;;6154273;23;20396;-64
2021/08/16 08:45:35;;;;;;;4.00;3.20;;;18.00;99.90;;;;;;6154102;23;20753;-65
2021/08/16 08:48:00;;;;;;;2.90;2.63;;;18.00;99.90;;;;;;6153948;23;20376;-64
2021/08/16 08:50:26;;;;;;;3.50;2.47;;;18.00;99.90;;;;;;6154206;23;20393;-65
2021/08/16 08:52:56;;;;;;;4.23;2.77;;;18.00;99.90;;;;;;6154182;23;20176;-65
2021/08/16 08:55:22;;;;;;;4.00;3.00;;;17.80;99.90;;;;;;6154330;23;20152;-64
2021/08/16 08:57:48;;;;;;;4.93;2.97;;;17.80;99.90;;;;;;6154638;23;20552;-64
2021/08/16 09:00:18;;;;;;;6.13;2.87;;;17.80;99.90;;;;;;6153743;23;20400;-64
2021/08/16 09:02:55;;;;;;;3.17;2.97;;;17.70;99.90;;;;;;6154529;23;20211;-64
2021/08/16 09:05:21;;;;;;;6.63;3.47;;;17.90;99.90;;;;;;6154518;23;20429;-65
2021/08/16 09:07:46;;;;;;;3.40;3.10;;;17.90;99.90;;;;;;6154110;23;20862;-65
2021/08/16 09:10:14;;;;;;;2.87;2.57;;;17.90;99.90;;;;;;6153762;23;20180;-65
2021/08/16 09:12:42;;;;;;;3.90;2.60;;;18.00;99.90;;;;;;6154063;23;20488;-65
2021/08/16 09:15:19;;;;;;;4.57;3.83;;;18.10;99.90;;;;;;6154282;23;20357;-64
2021/08/16 09:17:45;;;;;;;3.00;2.47;;;18.20;99.90;;;;;;6154036;23;20411;-64
2021/08/16 09:20:30;;;;;;;3.53;3.30;;;18.50;99.90;;;;;;6153713;23;20392;-64
2021/08/16 09:23:06;;;;;;;2.87;2.57;;;18.60;99.90;;;;;;6153991;23;20134;-64
2021/08/16 09:25:36;;;;;;;2.33;2.23;;;18.60;99.90;;;;;;6154492;23;20408;-64
2021/08/16 09:28:03;;;;;;;3.10;2.87;;;18.50;99.90;;;;;;6154167;23;20350;-65
2021/08/16 09:30:31;;;;;;;4.03;3.20;;;18.50;99.90;;;;;;6154388;23;20765;-64
2021/08/16 09:32:56;;;;;;;6.00;2.70;;;18.40;99.90;;;;;;6154368;23;20368;-64
2021/08/16 09:35:22;;;;;;;2.33;2.23;;;18.40;99.90;;;;;;6154000;23;20372;-64
2021/08/16 09:37:56;;;;;;;2.77;2.57;;;18.40;99.90;;;;;;6154071;23;20157;-65
2021/08/16 09:40:22;;;;;;;7.67;2.87;;;18.30;99.90;;;;;;6153799;23;20180;-65
2021/08/16 09:42:53;;;;;;;3.63;2.70;;;18.70;99.90;;;;;;6153989;23;20419;-65
2021/08/16 09:45:33;;;;;;;3.33;2.63;;;19.10;99.90;;;;;;6154301;23;20177;-65
2021/08/16 09:48:01;;;;;;;2.40;2.30;;;19.30;99.90;;;;;;6153724;23;20690;-64
2021/08/16 09:50:42;;;;;;;4.80;3.00;;;19.20;99.60;;;;;;6154978;23;20395;-65
2021/08/16 09:53:09;;;;;;;3.83;2.63;;;18.90;99.20;;;;;;6155967;23;20717;-64
2021/08/16 09:55:42;;;;;;;5.17;2.80;;;18.70;99.60;;;;;;6155926;23;20369;-64
2021/08/16 09:58:09;;;;;;;5.37;2.57;;;18.70;99.80;;;;;;6155439;23;20444;-65
2021/08/16 10:00:37;;;;;;;3.13;2.80;;;18.80;99.90;;;;;;6155710;23;20537;-65
2021/08/16 10:03:06;;;;;;;2.87;2.67;;;19.10;99.90;;;;;;6155789;23;20380;-65
2021/08/16 10:05:34;;;;;;;2.40;2.20;;;19.40;99.90;;;;;;6155715;23;20945;-65
2021/08/16 10:08:01;;;;;;;3.50;2.87;;;19.60;98.70;;;;;;6155448;23;20768;-65
2021/08/16 10:10:28;;;;;;;3.20;2.67;;;19.90;99.90;;;;;;6155630;23;20419;-65
2021/08/16 10:12:53;;;;;;;5.67;2.60;;;20.00;99.00;;;;;;6155619;23;20707;-64
2021/08/16 10:15:19;;;;;;;2.80;2.50;;;20.10;98.10;;;;;;6156047;23;20373;-65
2021/08/16 10:17:45;;;;;;;2.67;2.47;;;20.10;98.00;;;;;;6155977;23;20592;-65
2021/08/16 10:20:12;;;;;;;2.93;2.73;;;20.00;97.60;;;;;;6155206;23;20244;-65
2021/08/16 10:22:39;;;;;;;3.80;2.67;;;19.70;97.00;;;;;;6155680;23;21080;-64
2021/08/16 10:25:09;;;;;;;3.77;2.47;;;19.60;97.10;;;;;;6155568;23;20416;-65
2021/08/16 10:27:35;;;;;;;3.53;3.23;;;19.40;97.80;;;;;;6155453;23;20935;-65
2021/08/16 10:30:12;;;;;;;6.20;2.70;;;19.30;97.80;;;;;;6155429;23;20423;-65
2021/08/16 10:32:38;;;;;;;3.73;2.70;;;19.40;98.20;;;;;;6155521;23;20179;-65
2021/08/16 10:35:08;;;;;;;3.30;2.97;;;19.50;98.30;;;;;;6155521;23;20376;-65
2021/08/16 10:37:36;;;;;;;2.30;2.20;;;19.40;98.00;;;;;;6155612;23;20663;-65
2021/08/16 10:40:22;;;;;;;2.90;2.10;;;19.30;98.40;;;;;;6154889;23;20412;-65
2021/08/16 10:42:48;;;;;;;2.17;2.07;;;19.20;98.10;;;;;;6155427;23;20362;-65
2021/08/16 10:45:30;;;;;;;2.47;2.27;;;19.10;98.50;;;;;;6155343;23;20843;-65
2021/08/16 10:48:06;;;;;;;2.00;1.90;;;19.20;98.20;;;;;;6156049;23;20345;-65
2021/08/16 10:50:33;;;;;;;3.77;3.40;;;19.30;98.00;;;;;;6155344;23;20359;-65
2021/08/16 10:53:01;;;;;;;2.97;2.77;;;19.40;98.90;;;;;;6155634;23;20365;-65
2021/08/16 10:55:27;;;;;;;3.00;2.40;;;19.50;98.00;;;;;;6155322;23;20369;-65
2021/08/16 10:57:53;;;;;;;3.20;2.90;;;19.60;97.70;;;;;;6155317;23;20797;-65
2021/08/16 11:00:20;;;;;;;2.73;2.37;;;19.50;97.40;;;;;;6154784;23;20169;-65
2021/08/16 11:02:52;;;;;;;2.93;2.53;;;19.40;97.50;;;;;;6155171;23;20380;-64
2021/08/16 11:05:32;;;;;;;3.13;2.93;;;19.60;98.10;;;;;;6155147;23;20887;-65
2021/08/16 11:08:01;;;;;;;2.30;2.20;;;19.70;97.60;;;;;;6154895;23;20835;-65
2021/08/16 11:10:28;;;;;;;2.60;2.40;;;19.60;98.60;;;;;;6155122;23;20464;-65
2021/08/16 11:12:53;;;;;;;6.40;2.67;;;19.40;98.20;;;;;;6155095;23;20373;-65
2021/08/16 11:15:19;;;;;;;2.90;2.50;;;19.10;99.80;;;;;;6155208;23;20399;-64
2021/08/16 11:17:45;;;;;;;2.73;2.17;;;19.00;99.90;;;;;;6155054;23;20603;-64
2021/08/16 11:20:15;;;;;;;2.70;2.47;;;18.80;99.90;;;;;;6154737;23;20180;-65
2021/08/16 11:22:50;;;;;;;4.00;3.03;;;18.70;99.90;;;;;;6155152;23;20130;-65
2021/08/16 11:25:15;;;;;;;2.60;2.40;;;18.50;99.90;;;;;;6155063;23;20415;-64
2021/08/16 11:27:42;;;;;;;2.53;2.37;;;18.40;99.90;;;;;;6155052;23;20365;-65
2021/08/16 11:30:10;;;;;;;3.20;3.00;;;18.30;99.90;;;;;;6154609;23;20219;-65
2021/08/16 11:32:39;;;;;;;3.13;2.23;;;18.20;99.90;;;;;;6154777;23;20392;-64
2021/08/16 11:35:06;;;;;;;3.87;3.30;;;17.90;99.90;;;;;;6155231;23;20822;-65
2021/08/16 11:37:35;;;;;;;2.10;2.00;;;17.90;99.90;;;;;;6154977;23;20369;-65
2021/08/16 11:40:03;;;;;;;2.37;2.17;;;17.70;99.90;;;;;;6154359;23;20413;-64
2021/08/16 11:42:28;;;;;;;3.43;1.80;;;17.60;99.90;;;;;;6154755;23;20412;-65
2021/08/16 11:45:05;;;;;;;2.23;1.70;;;17.70;99.90;;;;;;6154820;23;20416;-64
2021/08/16 11:47:39;;;;;;;1.93;1.70;;;17.60;99.90;;;;;;6154825;23;20152;-66
2021/08/16 11:50:08;;;;;;;4.43;2.20;;;17.50;99.90;;;;;;6154452;23;20376;-64
2021/08/16 11:52:35;;;;;;;2.60;2.20;;;17.40;99.90;;;;;;6155027;23;20381;-64
2021/08/16 11:55:04;;;;;;;5.30;3.27;;;17.30;99.90;;;;;;6154748;23;20408;-64
2021/08/16 11:57:30;;;;;;;3.70;2.77;;;17.50;99.90;;;;;;6155098;23;20439;-64
2021/08/16 11:59:57;;;;;;;3.80;3.47;;;17.50;99.90;;;;;;6154691;23;20428;-64
2021/08/16 12:02:26;;;;;;;4.13;3.60;;;17.50;99.90;;;;;;6154715;23;20153;-64
2021/08/16 12:04:53;;;;;;;3.40;3.13;;;17.40;99.90;;;;;;6154565;23;20413;-64
2021/08/16 12:07:29;;;;;;;3.07;2.80;;;17.50;99.90;;;;;;6154703;23;20908;-64
2021/08/16 12:09:56;;;;;;;3.63;3.30;;;17.40;99.90;;;;;;6154098;23;20507;-64
2021/08/16 12:12:24;;;;;;;3.50;3.20;;;17.40;99.90;;;;;;6154271;23;20365;-64
2021/08/16 12:15:15;;;;;;;4.07;3.67;;;17.40;99.90;;;;;;6154536;23;20376;-65
2021/08/16 12:17:42;;;;;;;4.40;4.00;;;17.30;99.90;;;;;;6154557;23;20357;-64
2021/08/16 12:20:14;;;;;;;5.63;5.13;;;17.30;99.90;;;;;;6153944;23;20969;-64
2021/08/16 12:22:50;;;;;;;5.53;5.03;;;17.10;99.90;;;;;;6154509;23;20360;-65
2021/08/16 12:25:16;;;;;;;5.73;5.23;;;16.90;99.90;;;;;;6154701;23;20499;-65
2021/08/16 12:27:42;;;;;;;6.60;6.00;;;16.70;99.90;;;;;;6154456;23;20420;-65
2021/08/16 12:30:15;;;;;;;7.33;5.70;;;16.70;99.90;;;;;;6153976;23;20173;-64
2021/08/16 12:32:41;;;;;;;7.20;6.00;;;16.50;99.90;;;;;;6154524;23;20154;-64
2021/08/16 12:35:15;;;;;;;7.13;6.33;;;16.50;99.90;;;;;;6154485;23;20452;-64
2021/08/16 12:37:40;;;;;;;7.63;6.83;;;16.40;99.90;;;;;;6154418;23;20149;-64
2021/08/16 12:40:10;;;;;;;11.00;6.97;;;16.30;99.90;;;;;;6153684;23;20994;-64
2021/08/16 12:42:37;;;;;;;7.90;6.27;;;16.20;99.90;;;;;;6154360;23;20636;-64
2021/08/16 12:45:06;;;;;;;8.30;7.13;;;16.20;99.90;;;;;;6154236;23;20921;-64